Западная Россия

Регион "Западная Россия" VATRUS включает в себя территорию Республики Беларусь - Зональный центр Минск, а также территорию Региональных центров ЕС ОрВД Москва и Самара в Российской Федерации.

Примечателен регион тем, что в Беларуси полеты осуществляются в соответствии с международными документами ICAO, а в России - согласно Федеральным авиационным правилам. Это накладывает некоторые особенности работы, в том числе немного различаются минимальные интервалы.

Тем не менее, на всей территории региона радиосвязь может вестись как на русском, так и на английском языках.

Руководство осуществляют независимо руководители трех центров, их контакты вы можете найти на страницах РПИ ниже.

Лого Западная Россия
FSS региона
Обозначение
RU-WRC_FSS
Позывной
Запад-Контроль
Частота
135.320
Примечание
Top-down, исключая Московский УДР GND-FL285
Инструкторы региона
Alexander Petrenko (Instructor)
Alexey Dobronravov (Instructor)
Andrei Valasevich * (Controller)
Anton Myglan (Senior Instructor)
Artem Smorchkov (Instructor)
Denis Kashin (Instructor)
Dmitry Markus (Instructor)
Ilya Pyankov (Instructor)
Ivan Buev (Instructor)
Ivan Chokenyuk * (Controller)
Ivan Skatov (Instructor)
Matvey Safyannikov (Instructor)
Maxim Gerasimov (Instructor)
Maxim Tsygankov (Instructor)
Roman Savel (Instructor)
Sergei Stetsko * (Controller)
Yulia Goryacheva (Instructor)
Включает в себя

РПИ Минск
РПИ Москва
РПИ Самара

Диспетчеры региона

Диспетчер Рейтинг Допуски *
Artem Mordvinov Controller UMMV_CTR
Alexander Petrenko Instructor UUWV_CTR , UWWW_CTR
Alexey Dobronravov Instructor UUWV_CTR , UWWW_CTR
Andrei Valasevich Controller UMMV_CTR
Artem Smorchkov Instructor UUWV_CTR , UWWW_CTR
Denis Kashin Instructor UMMV_CTR
Dmitriy Kuzmin Controller UMMV_CTR  *, UMMS_APP
Dmitry Bugaychuk Instructor UWWW_CTR
Dmitry Markus Instructor UUWV_CTR , UWWW_CTR
George Kalandadze Controller UUWV_CTR
Ivan Buev Instructor UUWV_CTR , UWWW_CTR
Ivan Skatov Instructor UUWV_CTR , UWWW_CTR
Masha Stanchenko Controller UUWV_CTR
Maxim Gerasimov Instructor UMMV_CTR , UWLL_APP(UWLL+UWLW)
Maxim Tsygankov Instructor UUWV_CTR , UWWW_CTR
Nick Smirnov Senior Student UUWV_CTR  *, MSK_APP(UUEE+UUWW+UUDD)
Robert Farber Controller UUWV_CTR
Roman Savel Instructor UMMV_CTR
Sergei Stetsko Controller UWWW_CTR
Sergey Kovalenko Controller UUWV_CTR
Stanley Yorke Controller UWWW_CTR , UUBW_APP, UUWW_DEP, UUWW_APP, UUWW_F_APP
Vladimir Anisimov Senior Controller UUWV_CTR , UWWW_CTR
Vyacheslav Neklyudov Controller UUWV_CTR
Yulia Goryacheva Instructor UUWV_CTR , UWWW_CTR
Yury Koryagin Instructor UUWV_CTR , UWWW_CTR
Akmal Choriev Student UMMS_GND
Aleksey Zgoda Student UMMS_GND
alex kozyro Student 2 UMMS_2_TWR*, UMMS_1_TWR*
Alexander Belyakov Unknown UMMS_APP
Alexander Mikhin Student 2 MSK_APP(UUEE+UUWW+UUDD) , UUDD_TWR, UWKD_TWR
Alexander Nazarenko Student UMMS_GND
Alexandr Sosnovsky Senior Student UWKB_R_TWR
Alexey Verbitsky Student UMMS_GND
Alexsey Gorbunov Unknown UUDD_GND
Anna Piliushko Student 2 UMMS_APP*
Anton Beshenov Student UUEE_N_GND, UUEE_GND, UUEE_S_GND
Arseniy Artyushin Student 2 UWWW_GND, UWWW_TWR*
Arseny Krutikov Senior Student UMMS_APP*
Artem Badalov Senior Student UWKB_R_TWR
Artem Morozov Student 2 UUEE_N_TWR, MSK_APP(UUEE+UUDD+UUWW) , UUEE_TWR, UUEE_S_TWR
Arteom Alexeev Student UUEE_N_GND, UUEE_GND, UUEE_S_GND
Arthur Kurbangaleev Student UWWW_GND
Artyom Somok Student UMMS_GND
Bogdan Mavrodiev Student UUDD_GND
Danila Yarov Senior Student UMMS_APP
Denis Sorokin Student UUDD_GND
Dmitrii Terekhov Student UUWW_GND
Dmitry Sukhorukov Student UUDD_GND
Egor Goriachev Student 2 UUEE_N_TWR, UUEE_DEP*, UUEE_APP*, UUEE_TWR, UUEE_S_TWR, UUEE_F_APP*
Evgeniy Dedyaev Senior Student UWLL_APP(UWLL+UWLW) , UWKD_APP(UWKD+UWKE+UWKB+UWKS+UWKJ) , UWSG_APP, UWWW_APP, UWUU_APP
Evgeny Dubovitsky Student 2 UWLL_TWR, UWWW_TWR
Evgeny Serov Student UUEE_GND, UUEE_S_GND, UUEE_N_GND
Gleb Ishmuratov Student UUDD_GND
Gleb Smolkov Student 2 UUEE_TWR, UUEE_S_TWR, UUEE_DEP*, UUEE_APP*, UUEE_N_TWR, UUEE_F_APP*
Ignat Morozov Student 2 UMMS_GND
Ilya Pyrenkov Student UUDD_TWR*, UUDD_GND
Iosif Karpov Student 2 UMMS_R_APP*
Ivan Baranov Student UUEE_GND, UUEE_S_GND, UUEE_N_GND
Ivan Davidovich Student UMMS_GND
Ivan Piskovsky Unknown UUWW_GND
Kirill Korchagin Student UUWW_GND
Kirill Kudryavtsev Student 2 UUWW_TWR
Maksim Tsyro Student UMMS_GND
mansur sibgatullin Student 2 UWKD_TWR, UWWW_TWR, UWKD_R_APP*
Maxim Ivantsov Student 2 UMMS_R_APP*
Maxim Kalalenskiy Student 2 UUWW_TWR!!!, UWLL_TWR, UWWW_TWR, UWKD_TWR
Maxim Khromtsov Controller MSK_APP(UUEE+UUDD+UUWW)
Michael Kostelcev Student 2 UMMS_APP*
Michael Loyuk Senior Student MSK_APP(UUDD+UUWW+UUEE)
Mihail Mihailov Senior Student MSK_APP(UUEE+UUDD+UUWW)
Nikita Levin Student 2 MSK_APP(UUWW+UUEE+UUDD) , UUWW_TWR
Nikolay Klemenchev Student UUWW_GND
Pavel Kostuykov Student 2 UMMS_1_TWR, UMMS_2_TWR
Pavel Moskvin Student 2 UUWW_TWR*, UUWW_GND
Pavel Sergienko Student 2 UUML_TWR
Pavel Yashin Student 2 UMMS_APP*
Petr Koreshkov Student UUEE_GND, UUEE_S_GND, UUEE_N_GND
Sergey Isaev Student 2 UUEE_TWR, UUEE_S_TWR, UUWW_F_APP*, UUEE_N_TWR, UUWW_DEP*, UUWW_APP*
Ura Strelkov Student UMMS_GND
Vadim Sozinov Student UUEE_N_GND, UUEE_GND, UUEE_S_GND
Vladislav Petrov Student UUEE_N_GND, UUEE_GND, UUEE_S_GND
Vsevolod Shyshko Student UMMS_1_TWR*, UMMS_2_TWR*
Yury Kompaniychenko Student 2 UUML_TWR!!!

Аэропорты региона

ICAO Город Название Погода
UMMS Минск Минск UMMS 310230Z 35002MPS 9999 BCFG NSC 05/04 Q1020 NOSIG
UUWW Москва Внуково UUWW 310230Z 33005MPS CAVOK 11/08 Q1013 R24/000070 NOSIG
UUDD Москва Домодедово UUDD 310230Z 33003MPS CAVOK 12/09 Q1012 R32L/CLRD60 NOSIG
UUBW Москва Жуковский UUBW 310230Z 31005MPS CAVOK 12/09 Q1012 R30/010060 NOSIG RMK QFE748
UUMU Москва Чкаловский
UUEE Москва Шереметьево UUEE 310230Z 32005MPS 290V350 CAVOK 11/08 Q1012 R24L/CLRD62 R24C/CLRD62 NOSIG
UWWW Самара Курумоч UWWW 310230Z 13009MPS 9999 SCT033CB 22/09 Q1006 R15/CLRD60 NOSIG RMK QFE743/0991
UWUU Уфа Уфа UWUU 310230Z 20003MPS 9999 OVC040CB 18/15 Q1016 R32L/0///60 NOSIG
UUOB Белгород Белгород UUOB 310230Z 33002MPS CAVOK 11/09 Q1013 R11/010070 NOSIG
UMBB Брест Брест
UUBP Брянск Брянск UUBP 310230Z 32005MPS 9999 SCT017CB 11/09 Q1015 R16/////// NOSIG RMK QFE743/0991
UWKB Бугульма Бугульма
UMII Витебск Восточный
UUOO Воронеж Воронеж UUOO 310230Z 31004MPS CAVOK 13/11 Q1012 R30/010070 NOSIG RMK QFE745
UMGG Гомель Гомель UMGG 310200Z 34004MPS CAVOK 10/09 Q1018 NOSIG
UMMG Гродно Гродно
UUBI Иваново Иваново
UWKJ Йошкар-Ола Йошкар-Ола
UWKD Казань Казань UWKD 310230Z 14001MPS CAVOK 19/14 Q1009 R11/290050 NOSIG RMK QFE746/0995
UUBC Калуга Калуга UUBC 310230Z 34004MPS 310V010 9999 SCT059CB 12/10 Q1014 R31/CLRD60 NOSIG RMK QFE743/0991
UUOK Курск Курск UUOK 310230Z 18002MPS CAVOK 11/10 Q1013 R12/////// NOSIG RMK QFE742/0990
UMOO Могилёв Могилёв
UUMO Москва Остафьево UUMO 310230Z 33004MPS CAVOK 11/08 Q1012 R25/CLRD60 NOSIG RMK QFE744/0992
UWKE Нижнекамск Бегишево UWKE 310230Z 12003MPS CAVOK 20/12 Q1012 R21/290055 NOSIG RMK QFE742/0990
UWGG Нижний Новгород Стригино UWGG 310230Z 05002MPS 9999 -RA BKN040 14/14 Q1011 R36R/290050 NOSIG
UWOO Оренбург Оренбург UWOO 310230Z 12003MPS CAVOK 20/08 Q1016 R08/60D NOSIG RMK QFE752/1002
UWOR Орск Орск UWOR 310200Z 16002MPS CAVOK 19/11 Q1020 R25/CLRD65 NOSIG RMK QFE741/0989
UWPP Пенза Пенза
UWPS Саранск Саранск UWPS 310230Z 35004MPS 3400 -TSRA BKN023CB 14/14 Q1007 R02/CLRD60 NOSIG RMK QFE736
UWSG Саратов Гагарин UWSG 310230Z 30002MPS 270V330 9999 FEW050CB 19/16 Q1006 R08/CLRD70 NOSIG RMK QFE752/1003
UWLL Ульяновск-УЛК Ульяновск UWLL 310230Z 34002MPS 300V050 9999 VCTS SCT040CB 18/16 Q1007 R20/290250 NOSIG RMK QFE745/0993
UWLW Ульяновск-УЛС Восточный UWLW 310200Z 04003MPS 9999 BKN040CB 17/15 Q1008 R02/CLRD60 TEMPO -TSRA RMK QFE749/0999
UWKS Чебоксары Чебоксары UWKS 310230Z 05002MPS 9999 VCTS BKN040CB 14/14 Q1009 R24/010060 TEMPO -TSRA RMK QFE742
UUDL Ярославль Туношна UUDL 310230Z 31002MPS CAVOK 10/09 Q1011 R23/010060 NOSIG RMK QFE750
UUMW Ватулино Ватулино
UUML Воскресенск Северка